createdAt,value
2018-10-21T06:28:08.582Z,18.17
2018-10-21T06:30:37.499Z,19.43
2018-10-21T06:33:06.574Z,20.20
2018-10-21T06:35:35.412Z,17.30
2018-10-21T06:38:04.203Z,22.57
2018-10-21T06:40:32.993Z,21.13
2018-10-21T06:43:01.757Z,20.87
2018-10-21T06:45:30.647Z,22.77
2018-10-21T06:47:59.402Z,22.97
2018-10-21T06:50:28.331Z,23.13
2018-10-21T06:52:57.107Z,25.67
2018-10-21T06:55:25.939Z,20.00
2018-10-21T06:57:54.720Z,25.67
2018-10-21T07:00:25.463Z,21.87
2018-10-21T07:02:54.225Z,22.47
2018-10-21T07:05:40.750Z,27.87
2018-10-21T07:08:09.592Z,27.63
2018-10-21T07:10:38.380Z,24.13
2018-10-21T07:13:07.167Z,19.93
2018-10-21T07:15:35.975Z,22.60
2018-10-21T07:18:04.738Z,26.70
2018-10-21T07:20:33.519Z,24.47
2018-10-21T07:23:02.297Z,20.17
2018-10-21T07:25:31.172Z,24.90
2018-10-21T07:28:01.028Z,19.57
2018-10-21T07:30:29.734Z,22.77
2018-10-21T07:32:58.556Z,21.63
2018-10-21T07:35:27.338Z,20.63
2018-10-21T07:37:56.136Z,24.67
2018-10-21T07:40:24.925Z,23.87
2018-10-21T07:42:53.802Z,17.97
2018-10-21T07:45:22.661Z,24.00
2018-10-21T07:47:51.629Z,22.83
2018-10-21T07:50:20.341Z,22.93
2018-10-21T07:52:49.143Z,21.00
2018-10-21T07:55:17.973Z,25.70
2018-10-21T07:57:48.311Z,24.37
2018-10-21T08:00:17.394Z,23.50
2018-10-21T08:02:46.255Z,22.60
2018-10-21T08:05:33.163Z,23.23
2018-10-21T08:08:09.889Z,23.40
2018-10-21T08:10:38.802Z,23.80
2018-10-21T08:13:09.082Z,20.73
2018-10-21T08:15:37.872Z,23.00
2018-10-21T08:18:06.927Z,21.73
2018-10-21T08:20:36.187Z,18.03
2018-10-21T08:23:04.879Z,22.37
2018-10-21T08:25:33.747Z,20.93
2018-10-21T08:28:02.721Z,19.83
2018-10-21T08:30:31.456Z,18.60
2018-10-21T08:33:00.306Z,17.93
2018-10-21T08:35:29.099Z,17.17
2018-10-21T08:37:57.987Z,20.93
2018-10-21T08:40:26.751Z,20.77
2018-10-21T08:42:56.601Z,20.27
2018-10-21T08:45:25.637Z,19.27
2018-10-21T08:47:54.551Z,21.73
2018-10-21T08:50:23.342Z,26.17
2018-10-21T08:52:52.484Z,24.00
2018-10-21T08:55:21.271Z,28.03
2018-10-21T08:57:51.876Z,21.90
2018-10-21T09:00:21.007Z,22.33
2018-10-21T09:02:49.846Z,20.20
2018-10-21T09:05:20.549Z,23.47
2018-10-21T09:07:49.712Z,26.30
2018-10-21T09:10:19.018Z,23.57
2018-10-21T09:12:47.959Z,22.00
2018-10-21T09:15:18.000Z,20.27
2018-10-21T09:17:46.703Z,17.43
2018-10-21T09:20:19.308Z,20.97
2018-10-21T09:22:48.168Z,19.27
2018-10-21T09:25:16.975Z,19.77
2018-10-21T09:27:46.008Z,18.70
2018-10-21T09:30:16.062Z,22.80
2018-10-21T09:32:44.847Z,22.17
2018-10-21T09:35:17.663Z,24.20
2018-10-21T09:37:46.487Z,22.60
2018-10-21T09:40:19.559Z,23.13
2018-10-21T09:42:48.931Z,24.83
2018-10-21T09:45:19.042Z,24.30
2018-10-21T09:47:47.873Z,22.53
2018-10-21T09:50:16.739Z,24.83
2018-10-21T09:52:45.602Z,22.03
2018-10-21T09:55:21.696Z,29.33
2018-10-21T09:57:50.912Z,28.10
2018-10-21T10:00:37.281Z,31.03
2018-10-21T10:03:09.228Z,29.67
2018-10-21T10:05:38.195Z,26.10
2018-10-21T10:08:07.004Z,31.33
2018-10-21T10:10:35.793Z,31.90
2018-10-21T10:13:04.642Z,29.53
2018-10-21T10:15:33.382Z,26.57
2018-10-21T10:18:03.194Z,34.37
2018-10-21T10:20:32.014Z,35.57
2018-10-21T10:23:00.871Z,30.50
2018-10-21T10:25:29.730Z,24.53
2018-10-21T10:27:58.571Z,33.02
2018-10-21T10:30:27.465Z,36.00
2018-10-21T10:32:56.147Z,38.92
2018-10-21T10:35:25.039Z,34.67
2018-10-21T10:37:53.806Z,41.18
2018-10-21T10:40:23.635Z,37.53
2018-10-21T10:42:52.393Z,39.35
2018-10-21T10:45:21.255Z,38.23
2018-10-21T10:47:50.023Z,27.83
2018-10-21T10:50:18.903Z,35.00
2018-10-21T10:52:47.708Z,34.80
2018-10-21T10:55:16.535Z,34.80
2018-10-21T10:57:45.259Z,29.23
2018-10-21T11:00:15.635Z,26.63
2018-10-21T11:02:44.362Z,28.23
2018-10-21T11:05:15.203Z,27.13
2018-10-21T11:07:43.980Z,24.17
2018-10-21T11:10:12.963Z,30.65
2018-10-21T11:12:41.635Z,29.73
2018-10-21T11:15:10.476Z,30.67
2018-10-21T11:17:39.253Z,30.23
2018-10-21T11:20:08.075Z,27.30
2018-10-21T11:22:36.989Z,29.47
2018-10-21T11:25:07.328Z,32.50
2018-10-21T11:27:36.078Z,28.50
2018-10-21T11:30:05.919Z,27.42
2018-10-21T11:32:34.713Z,34.33
2018-10-21T11:35:03.536Z,32.57
2018-10-21T11:37:32.515Z,33.70
2018-10-21T11:40:01.282Z,32.23
2018-10-21T11:42:30.189Z,32.40
2018-10-21T11:44:58.999Z,34.70
2018-10-21T11:47:27.780Z,39.00
2018-10-21T11:49:56.576Z,33.67
2018-10-21T11:52:25.920Z,35.73
2018-10-21T11:54:54.803Z,32.27
2018-10-21T11:57:24.195Z,26.43
2018-10-21T11:59:53.030Z,28.23
2018-10-21T12:02:21.895Z,27.10
2018-10-21T12:04:50.757Z,23.97
2018-10-21T12:07:19.599Z,22.93
2018-10-21T12:09:48.322Z,26.00
2018-10-21T12:12:17.843Z,23.83
2018-10-21T12:14:46.632Z,24.83
2018-10-21T12:17:15.406Z,22.00
2018-10-21T12:19:46.322Z,27.50
2018-10-21T12:22:15.197Z,24.83
2018-10-21T12:24:43.971Z,21.97
2018-10-21T12:27:14.162Z,26.90
2018-10-21T12:29:42.970Z,24.97
2018-10-21T12:32:11.896Z,24.83
2018-10-21T12:34:40.718Z,25.87
2018-10-21T12:37:09.620Z,20.27
2018-10-21T12:39:38.357Z,21.00
2018-10-21T12:42:07.183Z,21.03
2018-10-21T12:44:36.201Z,20.33
2018-10-21T12:47:05.085Z,22.30
2018-10-21T12:49:33.991Z,20.63
2018-10-21T12:52:02.773Z,21.57
2018-10-21T12:54:31.722Z,20.40
2018-10-21T12:57:00.429Z,17.43
2018-10-21T12:59:29.266Z,14.37
2018-10-21T13:01:58.212Z,12.97
2018-10-21T13:04:27.079Z,9.03
2018-10-21T13:06:55.893Z,12.60
2018-10-21T13:09:25.779Z,18.33
2018-10-21T13:11:54.666Z,17.67
2018-10-21T13:14:23.576Z,13.67
2018-10-21T13:16:52.483Z,16.00
2018-10-21T13:19:21.294Z,17.67
2018-10-21T13:21:50.144Z,19.17
2018-10-21T13:26:10.061Z,20.60
2018-10-21T13:28:39.115Z,20.37
2018-10-21T13:31:07.963Z,18.03
2018-10-21T13:33:36.815Z,17.77
2018-10-21T13:36:06.225Z,16.40
2018-10-21T13:38:35.062Z,19.80
2018-10-21T13:41:03.886Z,16.30
2018-10-21T13:43:32.680Z,18.87
2018-10-21T13:46:01.728Z,17.83
2018-10-21T13:48:30.422Z,19.70
2018-10-21T13:50:59.235Z,16.07
2018-10-21T13:53:28.147Z,19.30
2018-10-21T13:55:57.954Z,19.43
2018-10-21T13:58:26.750Z,19.27
2018-10-21T14:00:55.783Z,18.87
2018-10-21T14:03:24.552Z,20.90
2018-10-21T14:05:53.626Z,22.30
2018-10-21T14:08:22.414Z,19.93
2018-10-21T14:10:51.261Z,20.47
2018-10-21T14:13:20.020Z,20.97
2018-10-21T14:15:48.903Z,20.17
2018-10-21T14:18:17.688Z,25.50
2018-10-21T14:20:46.567Z,25.17
2018-10-21T14:23:15.400Z,24.23
2018-10-21T14:25:44.218Z,26.03
2018-10-21T14:28:13.140Z,21.10
2018-10-21T14:30:41.934Z,22.70
2018-10-21T14:33:10.818Z,24.57
2018-10-21T14:35:39.545Z,25.10
2018-10-21T14:38:08.438Z,24.63
2018-10-21T14:40:37.134Z,23.67
2018-10-21T14:43:06.309Z,21.70
2018-10-21T14:45:35.312Z,19.33
2018-10-21T14:48:04.438Z,23.70
2018-10-21T14:50:33.181Z,25.13
2018-10-21T14:53:02.235Z,25.60
2018-10-21T14:55:31.092Z,21.27
2018-10-21T14:57:59.882Z,23.20
2018-10-21T15:00:28.856Z,22.57
2018-10-21T15:02:57.670Z,21.50
2018-10-21T15:05:26.380Z,23.33
2018-10-21T15:07:55.521Z,23.07
2018-10-21T15:10:24.333Z,21.10
2018-10-21T15:12:53.275Z,20.73
2018-10-21T15:15:22.091Z,24.07
2018-10-21T15:17:50.889Z,23.13
2018-10-21T15:20:19.660Z,21.00
2018-10-21T15:22:49.569Z,28.17
2018-10-21T15:25:18.275Z,24.33
2018-10-21T15:27:47.192Z,28.43
2018-10-21T15:30:17.064Z,23.97
2018-10-21T15:32:45.765Z,24.33
2018-10-21T15:35:16.612Z,23.97
2018-10-21T15:37:45.521Z,24.57
2018-10-21T15:40:14.535Z,23.50
2018-10-21T15:42:43.336Z,23.80
2018-10-21T15:45:12.914Z,25.20
2018-10-21T15:47:41.694Z,25.00
2018-10-21T15:50:11.532Z,24.50
2018-10-21T15:52:40.583Z,27.93
2018-10-21T15:55:09.965Z,26.03
2018-10-21T15:57:40.785Z,26.03
2018-10-21T16:00:10.680Z,30.87
2018-10-21T16:02:39.500Z,25.93
2018-10-21T16:05:08.809Z,28.50
2018-10-21T16:07:37.701Z,29.43
2018-10-21T16:10:07.519Z,25.13
2018-10-21T16:12:36.630Z,27.13
2018-10-21T16:15:06.291Z,27.33
2018-10-21T16:17:35.263Z,28.63
2018-10-21T16:20:04.188Z,26.37
2018-10-21T16:22:33.694Z,29.53
2018-10-21T16:25:02.718Z,27.27
2018-10-21T16:27:31.619Z,25.90
2018-10-21T16:30:01.606Z,29.10
2018-10-21T16:32:30.494Z,24.00
2018-10-21T16:34:59.345Z,29.67
2018-10-21T16:37:28.257Z,25.30
2018-10-21T16:39:57.097Z,28.17
2018-10-21T16:42:26.030Z,29.10
2018-10-21T16:44:54.931Z,26.63
2018-10-21T16:47:23.818Z,26.27
2018-10-21T16:49:52.790Z,25.57
2018-10-21T16:52:21.696Z,32.17
2018-10-21T16:54:51.649Z,30.40
2018-10-21T16:57:20.499Z,35.63
2018-10-21T16:59:49.344Z,30.13
2018-10-21T17:02:18.216Z,32.83
2018-10-21T17:04:47.310Z,33.70
2018-10-21T17:07:16.246Z,33.13
2018-10-21T17:09:45.339Z,25.83
2018-10-21T17:12:14.016Z,30.50
2018-10-21T17:14:42.840Z,29.03
2018-10-21T17:17:11.726Z,28.27
2018-10-21T17:19:40.522Z,31.57
2018-10-21T17:22:09.222Z,30.77
2018-10-21T17:24:38.113Z,31.07
2018-10-21T17:27:06.890Z,37.00
2018-10-21T17:29:35.724Z,31.53
2018-10-21T17:32:04.613Z,28.70
2018-10-21T17:34:33.428Z,31.20
2018-10-21T17:37:02.346Z,28.50
2018-10-21T17:39:31.157Z,30.10
2018-10-21T17:41:59.987Z,32.17
2018-10-21T17:44:28.772Z,30.57
2018-10-21T17:46:57.608Z,32.30
2018-10-21T17:49:26.401Z,32.60
2018-10-21T17:51:55.195Z,33.57
2018-10-21T17:54:23.967Z,31.17
2018-10-21T17:57:02.196Z,30.60
2018-10-21T17:59:31.012Z,36.30
2018-10-21T18:01:59.830Z,36.10
2018-10-21T18:04:29.107Z,34.90
2018-10-21T18:06:57.894Z,34.93
2018-10-21T18:09:26.644Z,33.93
2018-10-21T18:11:55.422Z,34.87
2018-10-21T18:14:24.210Z,34.97
2018-10-21T18:16:53.081Z,34.63
2018-10-21T18:19:21.961Z,36.57
2018-10-21T18:21:50.837Z,39.80
2018-10-21T18:24:19.680Z,33.47
2018-10-21T18:26:48.567Z,37.70
2018-10-21T18:29:17.436Z,35.83
2018-10-21T18:31:46.242Z,35.17
2018-10-21T18:34:15.382Z,31.37
2018-10-21T18:36:44.505Z,37.10
2018-10-21T18:39:13.450Z,40.27
2018-10-21T18:41:42.257Z,37.60
2018-10-21T18:44:11.138Z,34.73
2018-10-21T18:46:40.463Z,44.57
2018-10-21T18:49:09.303Z,39.10
2018-10-21T18:51:38.363Z,37.30
2018-10-21T18:54:07.197Z,40.57
2018-10-21T18:56:36.113Z,40.00
2018-10-21T18:59:05.135Z,39.73
2018-10-21T19:01:33.953Z,33.83
2018-10-21T19:04:02.831Z,37.13
2018-10-21T19:06:31.748Z,37.77
2018-10-21T19:09:00.664Z,36.33
2018-10-21T19:11:29.507Z,39.13
2018-10-21T19:13:58.397Z,41.90
2018-10-21T19:16:27.220Z,42.07
2018-10-21T19:18:56.201Z,38.70
2018-10-21T19:21:25.013Z,40.60
2018-10-21T19:23:53.927Z,38.03
2018-10-21T19:26:22.763Z,39.87
2018-10-21T19:28:53.675Z,43.97
2018-10-21T19:31:22.541Z,42.30
2018-10-21T19:33:51.597Z,42.90
2018-10-21T19:36:20.634Z,37.87
2018-10-21T19:38:49.531Z,40.33
2018-10-21T19:41:18.477Z,36.83
2018-10-21T19:43:47.336Z,44.47
2018-10-21T19:46:16.257Z,41.43
2018-10-21T19:48:45.169Z,38.17
2018-10-21T19:51:13.943Z,39.33
2018-10-21T19:53:44.832Z,40.73
2018-10-21T19:56:13.817Z,35.80
2018-10-21T19:58:43.944Z,45.93
2018-10-21T20:01:13.248Z,42.47
2018-10-21T20:03:42.012Z,38.77
2018-10-21T20:06:11.105Z,35.87
2018-10-21T20:08:40.279Z,42.17
2018-10-21T20:11:09.097Z,37.53
2018-10-21T20:13:38.055Z,32.43
2018-10-21T20:16:07.125Z,37.80
2018-10-21T20:18:36.880Z,34.83
2018-10-21T20:21:05.843Z,32.63
2018-10-21T20:23:34.654Z,36.57
2018-10-21T20:26:03.444Z,32.57
2018-10-21T20:28:32.244Z,39.17
2018-10-21T20:31:01.113Z,33.80
2018-10-21T20:33:29.810Z,33.17
2018-10-21T20:35:58.638Z,31.30
2018-10-21T20:38:27.542Z,32.23
2018-10-21T20:40:56.210Z,30.37
2018-10-21T20:43:24.980Z,28.43
2018-10-21T20:45:53.921Z,28.77
2018-10-21T20:48:22.649Z,28.60
2018-10-21T20:50:51.874Z,28.13
2018-10-21T20:53:20.787Z,27.90
2018-10-21T20:55:50.966Z,29.97
2018-10-21T20:58:19.863Z,31.63
2018-10-21T21:00:49.687Z,29.90
2018-10-21T21:03:18.659Z,28.90
2018-10-21T21:05:47.550Z,24.47
2018-10-21T21:08:16.477Z,23.90
2018-10-21T21:10:45.197Z,25.60
2018-10-21T21:13:14.006Z,25.77
2018-10-21T21:15:43.946Z,24.40
2018-10-21T21:18:12.799Z,24.13
2018-10-21T21:20:41.730Z,27.17
2018-10-21T21:23:10.479Z,26.30
2018-10-21T21:25:39.389Z,23.93
2018-10-21T21:28:08.765Z,24.23
2018-10-21T21:30:37.902Z,25.30
2018-10-21T21:33:06.955Z,25.57
2018-10-21T21:35:36.365Z,26.43
2018-10-21T21:38:05.389Z,26.70
2018-10-21T21:40:35.287Z,25.37
2018-10-21T21:43:04.168Z,24.10
2018-10-21T21:45:33.340Z,25.23
2018-10-21T21:48:02.537Z,23.37
2018-10-21T21:50:32.448Z,27.70
2018-10-21T21:53:01.268Z,24.83
2018-10-21T21:55:30.101Z,23.20
2018-10-21T21:57:58.988Z,26.17
2018-10-21T22:00:27.829Z,27.80
2018-10-21T22:02:56.639Z,25.40
2018-10-21T22:05:25.543Z,23.80
2018-10-21T22:07:54.467Z,26.03
2018-10-21T22:10:23.263Z,22.10
2018-10-21T22:12:52.151Z,24.23
2018-10-21T22:15:20.971Z,23.03
2018-10-21T22:17:50.282Z,28.03
2018-10-21T22:20:19.169Z,26.43
2018-10-21T22:22:48.037Z,24.40
2018-10-21T22:25:16.904Z,22.27
2018-10-21T22:27:45.814Z,21.97
2018-10-21T22:30:14.715Z,23.70
2018-10-21T22:32:46.047Z,30.03
2018-10-21T22:35:14.946Z,23.93
2018-10-21T22:37:43.758Z,23.87
2018-10-21T22:40:12.722Z,24.60
2018-10-21T22:42:41.523Z,25.00
2018-10-21T22:45:11.037Z,24.80
2018-10-21T22:47:40.170Z,26.17
2018-10-21T22:50:09.829Z,25.83
2018-10-21T22:52:38.648Z,24.13
2018-10-21T22:55:07.829Z,23.17
2018-10-21T22:57:36.722Z,24.10
2018-10-21T23:00:06.135Z,24.40
2018-10-21T23:02:35.002Z,28.23
2018-10-21T23:05:03.768Z,28.57
2018-10-21T23:07:32.592Z,28.23
2018-10-21T23:10:11.303Z,25.57
2018-10-21T23:12:39.912Z,32.87
2018-10-21T23:15:08.771Z,25.97
2018-10-21T23:17:37.691Z,27.47
2018-10-21T23:20:07.088Z,25.33
2018-10-21T23:22:35.902Z,26.30
2018-10-21T23:25:06.193Z,25.10
2018-10-21T23:27:34.960Z,27.43
2018-10-21T23:30:03.877Z,27.07
2018-10-21T23:32:33.672Z,22.70
2018-10-21T23:35:02.429Z,29.20
2018-10-21T23:37:31.288Z,26.07
2018-10-21T23:40:00.145Z,25.17
2018-10-21T23:42:29.194Z,25.47
2018-10-21T23:44:58.155Z,25.07
2018-10-21T23:47:28.966Z,27.13
2018-10-21T23:49:57.726Z,25.03
2018-10-21T23:52:27.513Z,23.70
2018-10-21T23:54:56.293Z,23.70
2018-10-21T23:57:25.196Z,28.33
2018-10-21T23:59:54.034Z,28.03
